Thailine 5 — 9WFF5 — position and weather

sailwx.info

Track history (hours):
 
Tides and Currents Weather Stations Pressure Air Temp Water Temp Dewpoint Dewpoint Depression Visibility Wind Speed Wind Dir Waves Ship Positions

Thailine 5

Last reported at 2014-Dec-17 21:19 UTC. Time now 2014-Dec-22 01:22 UTC.
Position N 29°53' E 122°38'.

Length 98 m; draft 7.6 m.

Type: Cargo ship. MMSI: 533399000.

Date/timePositionNaut miles runAvg speedWind from/ knotsBaromVisibWave heightAir tempDewpointWater temp
2014-Dec-17 21:19N 29°53' E 122°38'6 8.1
2014-Dec-17 20:33N 29°48' E 122°33'7 7.5
2014-Dec-17 19:33N 29°43' E 122°27'7 7.2
2014-Dec-17 18:33N 29°38' E 122°21'2 0.1
2014-Dec-17 01:29N 29°37' E 122°19'0 0.0
2014-Dec-17 00:29N 29°37' E 122°19'0 0.0
2014-Dec-16 23:29N 29°37' E 122°19'0 0.0
2014-Dec-16 21:11N 29°37' E 122°19'0 0.0
2014-Dec-16 20:17N 29°37' E 122°19'0 0.0
2014-Dec-16 19:23N 29°37' E 122°19'0 0.0
2014-Dec-16 17:05N 29°37' E 122°18'0 0.0
2014-Dec-16 12:17N 29°37' E 122°19'0 0.0
2014-Dec-16 11:18N 29°37' E 122°19'0 0.4
2014-Dec-16 10:32N 29°37' E 122°19'7 6.9
2014-Dec-16 09:33N 29°32' E 122°24'6 6.0
2014-Dec-16 08:29N 29°28' E 122°29'3 3.3
2014-Dec-16 07:33N 29°24' E 122°30'4 3.3
2014-Dec-16 06:12N 29°20' E 122°28'  
2014-Dec-12 05:15N 22°50' E 119°58'4 6.1
2014-Dec-12 04:33N 22°46' E 119°59'7 6.7
2014-Dec-12 03:33N 22°39' E 120°02'8 7.8
2014-Dec-12 02:33N 22°32' E 120°04'8 7.9
2014-Dec-12 01:33N 22°24' E 120°07'8 7.9
2014-Dec-12 00:33N 22°17' E 120°09'9 8.1
2014-Dec-11 23:29N 22°09' E 120°12'  
Track history (hours):
 
Tides and Currents Weather Stations Pressure Air Temp Water Temp Dewpoint Dewpoint Depression Visibility Wind Speed Wind Dir Waves Ship Positions

Thailine 5

Last reported at 2014-Dec-17 21:19 UTC. Time now 2014-Dec-22 01:22 UTC.
Position N 29°53' E 122°38'.

Length 98 m; draft 7.6 m.

Type: Cargo ship. MMSI: 533399000.

Date/timePositionNaut miles runAvg speedWind from/ knotsBaromVisibWave heightAir tempDewpointWater temp
2014-Dec-17 21:19N 29°53' E 122°38'6 8.1
2014-Dec-17 20:33N 29°48' E 122°33'7 7.5
2014-Dec-17 19:33N 29°43' E 122°27'7 7.2
2014-Dec-17 18:33N 29°38' E 122°21'2 0.1
2014-Dec-17 01:29N 29°37' E 122°19'0 0.0
2014-Dec-17 00:29N 29°37' E 122°19'0 0.0
2014-Dec-16 23:29N 29°37' E 122°19'0 0.0
2014-Dec-16 21:11N 29°37' E 122°19'0 0.0
2014-Dec-16 20:17N 29°37' E 122°19'0 0.0
2014-Dec-16 19:23N 29°37' E 122°19'0 0.0
2014-Dec-16 17:05N 29°37' E 122°18'0 0.0
2014-Dec-16 12:17N 29°37' E 122°19'0 0.0
2014-Dec-16 11:18N 29°37' E 122°19'0 0.4
2014-Dec-16 10:32N 29°37' E 122°19'7 6.9
2014-Dec-16 09:33N 29°32' E 122°24'6 6.0
2014-Dec-16 08:29N 29°28' E 122°29'3 3.3
2014-Dec-16 07:33N 29°24' E 122°30'4 3.3
2014-Dec-16 06:12N 29°20' E 122°28'  
2014-Dec-12 05:15N 22°50' E 119°58'4 6.1
2014-Dec-12 04:33N 22°46' E 119°59'7 6.7
2014-Dec-12 03:33N 22°39' E 120°02'8 7.8
2014-Dec-12 02:33N 22°32' E 120°04'8 7.9
2014-Dec-12 01:33N 22°24' E 120°07'8 7.9
2014-Dec-12 00:33N 22°17' E 120°09'9 8.1
2014-Dec-11 23:29N 22°09' E 120°12'  

Dump ship's entire track history